Strona główna
METAR-TAF:

METAR-TAF

Lotnisko :

Port lotniczy Łódź-Lublinek

Łódź, Polska

Szerokość geograficzna: 51-43-19N, Długość geograficzna: 019-23-53E, wysokość: 184 m

Aktualna obserwacja pogody

Raport powstał 26 minut temu, godzina 02:30 UTC
Wiatr 6 kt od wschód
Temperatura 3°C
Wilgotność 52%
Ciśnienie 1030 hPa
Widzialność 10 km lub więcej
Brak chmur poniżej 1500 m i brak chmur cumulonimbus

METAR: EPLL 060230Z 09006KT CAVOK 03/M06 Q1030

czas: 04:56 (02:56 UTC)

Prognoza

Raport powstał 3 godziny i 26 minut temu, godzina 23:30 UTC
Prognoza ważna od 06 godzina 00 UTC do 06 godzina 24 UTC
Wiatr 8 kt od wschodnio-południowy wschód
Widzialność 10 km lub więcej
Brak chmur poniżej 1500 m i brak chmur cumulonimbus
Stopniowe zmiany
od 06 godzina 14 UTC do 06 godzina 17 UTC
Wiatr 10 kt od południe

TAF: EPLL 052330Z 0600/0624 12008KT CAVOK BECMG 0614/0617 18010KT

Obserwacja i prognoza pogody dla ponad 4000 lotnisk (raport METAR i TAF).

Dostępne stacje oznaczono żółtymi i czerwonymi punktami na mapie.

Najedź kursorem aby zobaczyć nazwę stacji.

Kliknij aby zobaczyć obserwacje i prognozy pogody.

Aby zmienić mapę: kliknij na zielony przycisk z czarnym krzyżykiem, aby powiększyć; na zielony przycisk z myślnikiem, aby pomniejszyć; na zielone strzałki, aby przejść do map sąsiednich.


METAR-TAF: